Time;durP1;ratioP1;P1;durP2;ratioP2;P2;SDS_P1;SDS_P2;PMS_P1;PMS_P2;Temp;Humidity;BMP_temperature;BMP_pressure;BME280_temperature;BME280_humidity;BME280_pressure;Samples;Min_cycle;Max_cycle;Signal;HPM_P1;HPM_P2
2022/11/16 00:01:12;;;;;;;79.60;20.83;;;;;;;11.86;65.19;98040.16;4503416;31;20092;-84
2022/11/16 00:03:41;;;;;;;196.85;28.10;;;;;;;11.87;65.19;98037.41;4503142;31;20415;-84
2022/11/16 00:06:08;;;;;;;85.32;22.15;;;;;;;11.68;65.58;98029.13;4488933;31;20109;-84
2022/11/16 00:08:40;;;;;;;45.55;20.05;;;;;;;11.78;65.44;98033.66;4488859;31;20104;-84
2022/11/16 00:11:08;;;;;;;615.95;50.15;;;;;;;11.86;65.29;98032.25;4488993;31;20114;-83
2022/11/16 00:13:35;;;;;;;154.87;25.10;;;;;;;11.03;67.83;98031.00;4488923;31;20375;-84
2022/11/16 00:16:01;;;;;;;91.25;23.98;;;;;;;11.57;66.00;98019.34;4488719;31;20100;-83
2022/11/16 00:18:27;;;;;;;125.85;24.52;;;;;;;11.71;65.71;98021.84;4503323;31;20177;-84
2022/11/16 00:20:52;;;;;;;57.10;22.23;;;;;;;11.75;65.45;98012.75;4503044;31;20110;-83
2022/11/16 00:23:18;;;;;;;111.45;25.88;;;;;;;11.80;65.46;98015.91;4488606;31;20088;-83
2022/11/16 00:25:47;;;;;;;87.80;22.95;;;;;;;11.84;65.39;98021.81;4488734;31;20127;-83
2022/11/16 00:28:12;;;;;;;80.93;24.50;;;;;;;11.88;65.37;98017.13;4503251;31;20108;-83
2022/11/16 00:30:41;;;;;;;65.10;22.65;;;;;;;11.81;65.54;98014.94;4503197;31;20439;-83
2022/11/16 00:33:07;;;;;;;66.57;22.77;;;;;;;11.84;65.51;98008.62;4503011;31;20147;-83
2022/11/16 00:35:38;;;;;;;68.87;22.40;;;;;;;11.87;65.46;98007.56;4503184;31;20100;-83
2022/11/16 00:38:03;;;;;;;63.08;22.42;;;;;;;11.88;65.45;98004.81;4503040;31;20526;-85
2022/11/16 00:40:29;;;;;;;72.90;21.60;;;;;;;11.91;65.36;97996.69;4502876;31;20092;-85
2022/11/16 00:42:54;;;;;;;46.75;20.58;;;;;;;11.91;65.31;97986.13;4502893;31;20084;-83
2022/11/16 00:45:19;;;;;;;51.90;21.27;;;;;;;11.94;65.36;97985.09;4502919;31;20091;-86
2022/11/16 00:47:45;;;;;;;80.90;22.87;;;;;;;11.86;65.52;97980.31;4502992;31;20132;-84
2022/11/16 00:50:10;;;;;;;64.22;24.48;;;;;;;11.92;65.33;97968.50;4502831;31;20084;-83
2022/11/16 00:52:36;;;;;;;46.85;20.33;;;;;;;11.93;65.35;97973.66;4502529;31;20442;-84
2022/11/16 00:55:01;;;;;;;64.32;20.45;;;;;;;11.97;65.25;97971.63;4502937;31;20435;-83
2022/11/16 00:57:26;;;;;;;68.87;22.48;;;;;;;11.96;65.22;97964.69;4500721;31;20197;-82
2022/11/16 00:59:59;;;;;;;267.37;31.40;;;;;;;11.97;65.14;97967.19;4489397;31;20091;-83
2022/11/16 01:02:25;;;;;;;83.85;24.40;;;;;;;11.93;65.35;97962.25;4483687;31;20118;-83
2022/11/16 01:04:50;;;;;;;346.13;35.80;;;;;;;11.93;65.21;97962.25;4501994;31;20144;-84
2022/11/16 01:07:15;;;;;;;117.60;24.42;;;;;;;11.75;65.66;97961.78;4500741;31;20088;-83
2022/11/16 01:09:47;;;;;;;143.40;25.58;;;;;;;11.82;65.52;97970.94;4501843;31;20080;-83
2022/11/16 01:12:12;;;;;;;57.40;22.73;;;;;;;11.85;65.54;97969.88;4488382;31;20088;-83
2022/11/16 01:14:40;;;;;;;121.50;25.48;;;;;;;11.87;65.57;97966.16;4488296;31;20172;-83
2022/11/16 01:17:06;;;;;;;100.87;23.12;;;;;;;11.88;65.68;97953.81;4502546;31;20076;-83
2022/11/16 01:19:38;;;;;;;83.10;24.02;;;;;;;11.92;65.68;97952.69;4488502;31;20106;-83
2022/11/16 01:22:04;;;;;;;170.02;25.58;;;;;;;11.93;65.60;97941.97;4488089;31;20110;-83
2022/11/16 01:24:29;;;;;;;52.92;20.70;;;;;;;11.94;65.58;97941.03;4502583;31;20100;-83
2022/11/16 01:26:58;;;;;;;57.55;21.42;;;;;;;11.94;65.68;97938.41;4488282;31;20233;-83
2022/11/16 01:29:24;;;;;;;53.50;20.75;;;;;;;11.94;65.77;97933.13;4502636;31;20187;-83
2022/11/16 01:31:50;;;;;;;96.57;22.92;;;;;;;11.93;65.76;97930.59;4488244;31;20813;-83
2022/11/16 01:34:15;;;;;;;110.55;23.92;;;;;;;11.97;65.78;97930.25;4502752;31;20112;-83
2022/11/16 01:36:41;;;;;;;120.25;25.50;;;;;;;11.96;65.74;97925.94;4502766;31;20092;-83
2022/11/16 01:39:07;;;;;;;115.90;23.30;;;;;;;11.96;65.70;97928.56;4502779;31;20088;-83
2022/11/16 01:41:33;;;;;;;244.25;28.65;;;;;;;11.95;65.64;97915.47;4502655;31;20480;-83
2022/11/16 01:44:01;;;;;;;78.12;21.80;;;;;;;11.91;65.77;97914.03;4502672;31;20110;-83
2022/11/16 01:46:30;;;;;;;183.95;26.73;;;;;;;11.92;65.78;97910.44;4488033;31;20111;-83
2022/11/16 01:49:03;;;;;;;91.70;21.75;;;;;;;11.93;65.75;97905.03;4502255;31;20092;-83
2022/11/16 01:51:29;;;;;;;93.35;21.65;;;;;;;11.89;65.82;97908.84;4488039;31;20079;-83
2022/11/16 01:53:55;;;;;;;62.97;20.42;;;;;;;11.77;66.15;97904.47;4487937;31;20130;-83
2022/11/16 01:56:21;;;;;;;282.75;29.83;;;;;;;11.87;66.02;97902.00;4502284;31;20506;-83
2022/11/16 01:58:46;;;;;;;96.72;23.05;;;;;;;11.87;66.11;97897.53;4502124;31;20092;-83
2022/11/16 02:01:12;;;;;;;53.92;20.15;;;;;;;11.89;65.93;97900.06;4488114;31;20079;-83
2022/11/16 02:03:38;;;;;;;57.50;19.60;;;;;;;11.89;65.92;97886.88;4502431;31;20118;-83
2022/11/16 02:06:18;;;;;;;150.23;23.20;;;;;;;11.90;65.91;97888.56;4504143;31;20092;-83
2022/11/16 02:11:49;;;;;;;63.97;19.02;;;;;;;11.93;65.67;97886.56;4492076;31;20102;-83
2022/11/16 02:14:21;;;;;;;45.33;18.48;;;;;;;11.97;65.64;97881.91;4489719;31;20130;-83
2022/11/16 02:17:15;;;;;;;91.07;19.60;;;;;;;11.98;65.59;97879.16;4504001;31;20084;-83
2022/11/16 02:20:18;;;;;;;78.18;22.02;;;;;;;11.93;65.78;97872.53;4504074;31;20114;-83
2022/11/16 02:23:02;;;;;;;38.60;17.02;;;;;;;11.89;65.77;97874.56;4489526;31;20088;-83
2022/11/16 02:25:44;;;;;;;171.95;23.00;;;;;;;11.92;65.68;97870.88;4503938;31;20119;-83
2022/11/16 02:28:22;;;;;;;81.95;20.30;;;;;;;11.88;65.85;97864.06;4476463;31;20171;-83
2022/11/16 02:30:49;;;;;;;80.65;19.37;;;;;;;11.89;65.71;97857.84;4489556;31;20096;-83
2022/11/16 02:33:22;;;;;;;65.87;18.42;;;;;;;11.89;65.80;97863.12;4489490;31;20157;-84
2022/11/16 02:35:49;;;;;;;495.60;37.05;;;;;;;11.89;65.72;97857.84;4503865;31;20119;-84
2022/11/16 02:38:21;;;;;;;80.10;19.27;;;;;;;10.98;68.24;97862.66;4489562;31;20140;-83
2022/11/16 02:40:49;;;;;;;47.90;18.20;;;;;;;11.50;66.69;97855.41;4503861;31;20167;-83
2022/11/16 02:43:22;;;;;;;51.53;16.83;;;;;;;11.46;66.80;97853.13;4503725;31;20420;-83
2022/11/16 02:45:49;;;;;;;56.00;17.52;;;;;;;11.63;66.26;97854.50;4489394;31;20454;-83
2022/11/16 02:48:21;;;;;;;38.95;16.05;;;;;;;11.69;66.14;97849.63;4489505;31;20091;-83
2022/11/16 02:50:47;;;;;;;279.30;29.77;;;;;;;11.78;66.01;97842.81;4503816;31;20114;-83
2022/11/16 02:53:14;;;;;;;82.88;20.12;;;;;;;11.63;66.47;97841.31;4489736;31;20076;-83
2022/11/16 02:55:39;;;;;;;48.42;17.62;;;;;;;11.53;66.78;97842.00;4503750;31;20130;-83
2022/11/16 02:58:06;;;;;;;37.13;16.33;;;;;;;11.65;66.36;97834.97;4489472;31;20132;-83
2022/11/16 03:00:57;;;;;;;71.25;18.42;;;;;;;11.77;66.19;97827.94;4489264;31;20095;-83
2022/11/16 03:03:32;;;;;;;45.78;16.83;;;;;;;11.82;66.08;97831.09;4494342;31;20469;-84
2022/11/16 03:06:02;;;;;;;64.75;19.30;;;;;;;11.88;65.90;97828.00;4503807;31;20119;-83
2022/11/16 03:08:40;;;;;;;88.32;17.73;;;;;;;11.89;65.82;97826.19;4503684;31;20084;-83
2022/11/16 03:13:56;;;;;;;30.73;15.30;;;;;;;11.75;66.00;97825.41;4491519;31;20124;-83
2022/11/16 03:16:42;;;;;;;39.38;15.70;;;;;;;11.77;65.91;97828.78;4489171;31;20130;-83
2022/11/16 03:19:12;;;;;;;46.40;15.63;;;;;;;11.86;65.77;97821.13;4503549;31;20141;-83
2022/11/16 03:22:17;;;;;;;100.05;17.52;;;;;;;11.86;65.66;97822.00;4503343;31;20188;-83
2022/11/16 03:24:43;;;;;;;30.15;14.05;;;;;;;11.93;65.59;97822.38;4491948;31;20076;-83
2022/11/16 03:27:26;;;;;;;33.00;15.10;;;;;;;11.85;65.61;97808.91;4489175;31;20250;-83
2022/11/16 03:30:07;;;;;;;30.95;15.38;;;;;;;11.90;65.58;97812.03;4476162;31;20168;-84
2022/11/16 03:32:45;;;;;;;141.95;19.00;;;;;;;11.91;65.62;97801.38;4489248;31;20087;-83
2022/11/16 03:35:18;;;;;;;32.80;14.63;;;;;;;11.59;66.38;97804.63;4489222;31;20447;-83
2022/11/16 03:37:46;;;;;;;30.12;14.25;;;;;;;11.81;65.82;97806.47;4489129;31;20142;-83
2022/11/16 03:40:13;;;;;;;29.52;13.30;;;;;;;11.88;65.66;97804.22;4489426;31;20104;-83
2022/11/16 03:42:42;;;;;;;28.67;13.57;;;;;;;11.93;65.51;97798.63;4489379;31;20155;-83
2022/11/16 03:45:08;;;;;;;28.92;13.30;;;;;;;11.96;65.43;97793.13;4489287;31;20142;-83
2022/11/16 03:47:34;;;;;;;30.75;14.45;;;;;;;12.00;65.25;97792.75;4503583;31;20127;-83
2022/11/16 03:49:59;;;;;;;31.15;14.70;;;;;;;12.00;65.25;97787.50;4503511;31;20431;-83
2022/11/16 03:52:24;;;;;;;29.83;14.02;;;;;;;12.00;65.20;97779.56;4503459;31;20119;-83
2022/11/16 03:54:51;;;;;;;27.17;13.75;;;;;;;11.99;65.21;97777.03;4503523;31;20402;-82
2022/11/16 03:57:17;;;;;;;29.80;13.75;;;;;;;12.07;65.07;97779.97;4503167;31;20142;-83
2022/11/16 03:59:43;;;;;;;49.05;13.30;;;;;;;12.06;65.04;97778.25;4503351;31;20113;-83
2022/11/16 04:02:09;;;;;;;29.12;12.90;;;;;;;12.08;64.92;97776.34;4503128;31;20096;-83
2022/11/16 04:29:16;;;;;;;35.78;13.95;;;;;;;11.93;65.35;97748.47;4469421;32;20135;-82
2022/11/16 04:39:58;;;;;;;46.70;14.43;;;;;;;12.04;65.13;97732.66;4458384;32;20115;-83
2022/11/16 04:42:23;;;;;;;34.53;14.30;;;;;;;12.04;65.19;97737.94;4469371;32;20120;-83
2022/11/16 04:47:33;;;;;;;73.47;17.52;;;;;;;11.96;65.46;97740.34;4458318;32;20232;-83
2022/11/16 04:50:01;;;;;;;50.35;15.57;;;;;;;12.04;65.29;97740.59;4469166;32;20105;-83
2022/11/16 04:52:27;;;;;;;68.32;15.18;;;;;;;12.06;65.32;97733.38;4469157;32;20122;-83
2022/11/16 04:54:55;;;;;;;34.72;14.02;;;;;;;12.06;65.35;97724.63;4469124;32;20152;-83
2022/11/16 04:57:20;;;;;;;183.10;21.83;;;;;;;12.10;65.34;97731.34;4475658;31;20076;-82
2022/11/16 04:59:46;;;;;;;187.90;20.20;;;;;;;12.05;65.35;97729.06;4502883;31;20126;-82
2022/11/16 05:02:14;;;;;;;62.55;15.68;;;;;;;12.08;65.31;97726.19;4502773;31;20110;-82
2022/11/16 05:04:40;;;;;;;;;;;;;;;12.10;65.34;97728.72;4488803;31;20111;-82
2022/11/16 05:07:10;;;;;;;285.88;24.80;;;;;;;12.16;65.23;97728.22;4475414;31;20015;-83
2022/11/16 05:09:43;;;;;;;38.50;12.75;;;;;;;11.92;65.62;97720.44;4475736;31;20127;-83
2022/11/16 05:12:13;;;;;;;175.23;20.65;;;;;;;11.88;65.80;97727.69;4475217;31;20111;-83
2022/11/16 05:14:39;;;;;;;48.28;13.93;;;;;;;11.92;65.78;97731.81;4502793;31;20114;-83
2022/11/16 05:17:05;;;;;;;36.05;14.30;;;;;;;12.00;65.59;97723.31;4502738;31;20104;-83
2022/11/16 05:22:15;;;;;;;81.12;15.82;;;;;;;12.08;65.53;97728.00;4502687;31;20134;-83
2022/11/16 05:24:40;;;;;;;94.93;16.65;;;;;;;12.03;65.62;97716.94;4488082;31;20096;-83
2022/11/16 05:27:08;;;;;;;68.55;16.45;;;;;;;12.05;65.70;97722.94;4502699;31;20089;-82
2022/11/16 05:29:34;;;;;;;221.15;24.02;;;;;;;12.06;65.72;97717.53;4502652;31;20116;-82
2022/11/16 05:32:00;;;;;;;187.00;21.80;;;;;;;12.08;65.75;97718.25;4502513;31;20490;-82
2022/11/16 05:34:28;;;;;;;62.50;15.43;;;;;;;12.05;65.82;97707.94;4502569;31;20679;-83
2022/11/16 05:36:54;;;;;;;128.07;18.75;;;;;;;12.09;65.87;97705.91;4502793;31;20110;-83
2022/11/16 05:39:20;;;;;;;356.00;29.70;;;;;;;12.13;65.80;97702.91;4487032;31;20116;-83
2022/11/16 05:41:46;;;;;;;279.70;28.83;;;;;;;11.90;66.47;97698.56;4502595;31;20136;-83
2022/11/16 05:44:12;;;;;;;185.52;24.77;;;;;;;11.92;66.45;97697.50;4502623;31;20148;-82
2022/11/16 05:46:37;;;;;;;175.30;23.00;;;;;;;11.99;66.28;97695.22;4502637;31;20109;-82
2022/11/16 05:49:03;;;;;;;54.00;17.70;;;;;;;12.04;66.23;97689.59;4502374;31;20131;-82
2022/11/16 05:51:28;;;;;;;67.22;18.23;;;;;;;12.04;66.29;97693.06;4502297;31;20127;-83
2022/11/16 05:53:54;;;;;;;60.33;18.12;;;;;;;12.06;66.25;97690.31;4502375;31;20136;-82
2022/11/16 05:56:19;;;;;;;66.90;18.15;;;;;;;12.05;66.37;97680.69;4502411;31;20076;-83
2022/11/16 05:58:45;;;;;;;359.40;30.83;;;;;;;12.04;66.47;97682.50;4502605;31;20455;-82
2022/11/16 06:01:10;;;;;;;432.48;34.95;;;;;;;12.03;66.42;97674.72;4488070;31;20108;-83
2022/11/16 06:03:36;;;;;;;90.07;19.95;;;;;;;11.84;67.00;97681.41;4502207;31;20140;-82
2022/11/16 06:06:02;;;;;;;48.42;17.77;;;;;;;11.92;66.80;97675.56;4502454;31;20088;-83
2022/11/16 06:08:28;;;;;;;169.77;23.92;;;;;;;12.01;66.68;97672.19;4502327;31;20131;-83
2022/11/16 06:10:53;;;;;;;100.93;19.77;;;;;;;12.00;66.73;97676.63;4502025;31;20372;-83
2022/11/16 06:13:19;;;;;;;63.97;19.50;;;;;;;12.01;66.74;97680.09;4502123;31;20385;-83
2022/11/16 06:15:44;;;;;;;200.15;25.15;;;;;;;12.04;66.74;97682.50;4501886;31;20084;-82
2022/11/16 06:18:12;;;;;;;102.10;21.08;;;;;;;12.05;66.77;97675.44;4487669;31;20142;-82
2022/11/16 06:20:41;;;;;;;127.97;25.23;;;;;;;12.00;66.91;97681.91;4487399;31;20112;-82
2022/11/16 06:23:06;;;;;;;374.15;35.17;;;;;;;12.02;66.88;97671.22;4501442;31;20113;-82
2022/11/16 06:25:32;;;;;;;171.52;23.38;;;;;;;11.94;66.97;97678.91;4501461;31;20080;-83
2022/11/16 06:27:58;;;;;;;95.00;21.42;;;;;;;11.93;67.11;97682.50;4502047;31;20115;-83
2022/11/16 06:30:24;;;;;;;311.42;30.60;;;;;;;11.95;67.09;97683.22;4502122;31;20167;-82
2022/11/16 06:32:50;;;;;;;191.37;24.40;;;;;;;11.96;67.03;97679.62;4474573;31;20100;-83
2022/11/16 06:35:18;;;;;;;227.52;27.83;;;;;;;11.89;67.30;97683.66;4502058;31;20119;-83
2022/11/16 06:37:43;;;;;;;163.45;22.95;;;;;;;11.89;67.33;97681.03;4484565;31;20103;-82
2022/11/16 06:40:09;;;;;;;289.60;28.30;;;;;;;11.91;67.41;97679.97;4478665;31;20122;-83
2022/11/16 06:42:35;;;;;;;217.75;25.73;;;;;;;11.99;67.41;97677.59;4493079;31;20079;-82
2022/11/16 06:45:00;;;;;;;202.65;25.30;;;;;;;11.98;67.43;97675.06;4493988;31;20116;-82
2022/11/16 06:47:26;;;;;;;207.05;24.65;;;;;;;11.84;67.93;97667.34;4464889;31;20440;-82
2022/11/16 06:49:51;;;;;;;91.18;21.70;;;;;;;11.89;67.85;97667.84;4493643;31;20454;-81
2022/11/16 06:52:16;;;;;;;71.72;21.92;;;;;;;11.96;67.71;97669.91;4481471;31;20443;-81
2022/11/16 06:54:42;;;;;;;331.17;31.27;;;;;;;11.99;67.77;97661.75;4494582;31;20096;-82
2022/11/16 06:57:10;;;;;;;221.98;28.33;;;;;;;11.88;68.06;97658.22;4479687;32;20153;-83
2022/11/16 06:59:36;;;;;;;173.38;25.92;;;;;;;11.93;67.99;97651.66;4495916;31;20088;-81
2022/11/16 07:02:01;;;;;;;373.40;35.30;;;;;;;11.97;68.03;97653.09;4479788;32;20111;-82
2022/11/16 07:04:27;;;;;;;149.50;25.10;;;;;;;11.94;68.02;97650.72;4487748;31;20076;-82
2022/11/16 07:06:52;;;;;;;336.60;32.13;;;;;;;12.03;68.03;97648.31;4488141;31;20084;-83
2022/11/16 07:09:18;;;;;;;359.98;34.47;;;;;;;11.83;68.30;97650.69;4487756;31;20451;-83
2022/11/16 07:11:43;;;;;;;498.35;40.47;;;;;;;11.93;68.25;97656.94;4487671;31;20098;-82
2022/11/16 07:14:10;;;;;;;203.85;28.73;;;;;;;11.97;68.03;97653.09;4488681;31;20076;-82
2022/11/16 07:16:36;;;;;;;86.12;23.27;;;;;;;11.92;68.16;97650.00;4498654;31;20116;-79
2022/11/16 07:19:02;;;;;;;304.80;31.60;;;;;;;12.04;67.93;97652.63;4488839;31;20148;-75
2022/11/16 07:21:27;;;;;;;94.13;22.55;;;;;;;12.02;68.00;97644.84;4503892;31;20466;-77
2022/11/16 07:23:55;;;;;;;393.05;37.85;;;;;;;12.04;68.10;97640.28;4503690;31;20088;-77
2022/11/16 07:26:23;;;;;;;;;;;;;;;11.95;68.33;97648.91;4503805;31;20115;-78
2022/11/16 07:28:49;;;;;;;132.45;22.73;;;;;;;12.08;68.12;97639.06;4503861;31;19983;-77
2022/11/16 07:31:20;;;;;;;195.80;28.10;;;;;;;12.11;67.91;97644.13;4503251;31;20411;-78
2022/11/16 07:33:46;;;;;;;352.13;36.50;;;;;;;12.09;68.10;97635.47;4503676;31;20167;-78
2022/11/16 07:36:13;;;;;;;302.83;31.50;;;;;;;12.10;68.17;97634.50;4498114;31;20428;-87
2022/11/16 07:38:39;;;;;;;173.48;28.02;;;;;;;11.94;68.37;97640.16;4490770;31;20110;-80
2022/11/16 07:41:06;;;;;;;119.75;24.30;;;;;;;12.06;68.23;97637.53;4487804;31;20092;-85
2022/11/16 07:43:35;;;;;;;102.53;24.27;;;;;;;12.10;68.26;97629.22;4486085;32;20080;-81
2022/11/16 07:46:06;;;;;;;164.02;26.70;;;;;;;12.14;68.21;97625.38;4473170;32;20130;-83
2022/11/16 07:48:32;;;;;;;91.63;26.20;;;;;;;12.16;68.09;97631.37;4487908;31;20156;-82
2022/11/16 07:51:02;;;;;;;112.10;24.92;;;;;;;12.19;68.09;97630.31;4487794;31;20084;-80
2022/11/16 07:53:29;;;;;;;123.40;26.50;;;;;;;12.17;68.21;97624.31;4487771;31;20102;-81
2022/11/16 07:55:54;;;;;;;196.20;27.43;;;;;;;12.08;68.49;97623.22;4487930;31;20148;-81
2022/11/16 07:58:20;;;;;;;252.70;30.42;;;;;;;12.14;68.31;97617.47;4486562;32;20115;-86
2022/11/16 08:00:46;;;;;;;178.45;28.35;;;;;;;12.19;68.16;97611.81;4487598;31;20092;-80
2022/11/16 08:03:11;;;;;;;167.98;27.20;;;;;;;12.24;68.23;97611.44;4486492;31;20099;-82
2022/11/16 08:05:36;;;;;;;147.65;27.67;;;;;;;12.29;68.09;97606.66;4486212;32;20127;-86
2022/11/16 08:08:02;;;;;;;353.02;35.40;;;;;;;12.31;68.14;97608.19;4486182;32;20443;-80
2022/11/16 08:10:29;;;;;;;119.18;25.85;;;;;;;12.28;68.06;97610.25;4487756;31;20111;-81
2022/11/16 08:12:55;;;;;;;77.32;24.70;;;;;;;12.36;67.98;97608.66;4486335;32;20102;-79
2022/11/16 08:15:20;;;;;;;371.42;36.47;;;;;;;12.39;68.06;97611.03;4487203;31;20386;-81
2022/11/16 08:17:46;;;;;;;376.12;36.53;;;;;;;12.31;67.83;97612.66;4486056;32;20145;-80
2022/11/16 08:20:12;;;;;;;401.42;39.97;;;;;;;12.36;67.62;97606.03;4487182;31;20076;-81
2022/11/16 08:22:37;;;;;;;178.85;28.40;;;;;;;11.93;68.33;97613.88;4473111;32;20098;-82
2022/11/16 08:25:03;;;;;;;371.60;36.85;;;;;;;12.10;68.52;97607.28;4487111;32;20092;-81
2022/11/16 08:27:30;;;;;;;355.52;34.53;;;;;;;12.24;67.91;97609.63;4485955;32;20139;-81
2022/11/16 08:29:56;;;;;;;269.42;33.75;;;;;;;12.28;67.91;97604.97;4487375;31;20139;-81
2022/11/16 08:32:21;;;;;;;347.17;37.10;;;;;;;12.26;68.20;97604.25;4486013;32;20080;-81
2022/11/16 08:34:46;;;;;;;219.00;30.40;;;;;;;12.14;68.32;97612.19;4486001;32;20127;-81
2022/11/16 08:37:12;;;;;;;249.62;32.47;;;;;;;12.23;68.08;97607.97;4485988;32;20112;-81
2022/11/16 08:39:37;;;;;;;280.95;32.78;;;;;;;11.94;68.90;97602.38;4487241;31;20114;-81
2022/11/16 08:42:03;;;;;;;268.88;31.10;;;;;;;12.12;68.54;97605.34;4487216;31;20360;-81
2022/11/16 08:44:29;;;;;;;460.67;41.90;;;;;;;12.21;68.40;97601.97;4487176;31;20432;-81
2022/11/16 08:46:54;;;;;;;157.62;28.55;;;;;;;12.25;68.26;97599.94;4487275;31;20092;-81
2022/11/16 08:49:20;;;;;;;175.27;30.62;;;;;;;12.29;68.35;97594.28;4485901;32;20103;-81
2022/11/16 08:51:51;;;;;;;314.58;35.72;;;;;;;12.38;68.31;97600.59;4487187;31;20119;-81
2022/11/16 08:54:16;;;;;;;274.50;33.15;;;;;;;12.37;68.31;97596.28;4487134;31;20104;-81
2022/11/16 08:56:42;;;;;;;187.85;29.83;;;;;;;12.39;68.10;97597.00;4486997;32;20097;-81
2022/11/16 08:59:07;;;;;;;192.75;28.70;;;;;;;12.42;67.91;97593.28;4487106;31;20162;-81
2022/11/16 09:01:33;;;;;;;206.02;29.17;;;;;;;12.44;67.96;97593.97;4487096;31;20076;-81
2022/11/16 09:03:58;;;;;;;508.08;43.10;;;;;;;12.48;67.95;97590.16;4486828;31;20118;-81
2022/11/16 09:06:32;;;;;;;321.77;34.65;;;;;;;12.39;68.11;97594.38;4487124;31;20109;-81
2022/11/16 09:08:58;;;;;;;386.90;36.75;;;;;;;12.42;68.07;97593.28;4485896;32;20148;-81
2022/11/16 09:11:24;;;;;;;384.23;36.30;;;;;;;11.57;70.60;97592.87;4487103;32;20076;-81
2022/11/16 09:13:54;;;;;;;225.20;30.42;;;;;;;12.12;68.87;97589.50;4487103;31;20440;-81
2022/11/16 09:16:20;;;;;;;124.60;27.33;;;;;;;12.26;68.47;97577.84;4486105;32;20130;-81
2022/11/16 09:18:49;;;;;;;189.60;30.50;;;;;;;12.33;68.38;97581.66;4485959;32;20156;-81
2022/11/16 09:21:27;;;;;;;223.82;31.27;;;;;;;12.38;68.26;97588.25;4485703;32;20091;-81
2022/11/16 09:23:55;;;;;;;163.62;28.60;;;;;;;12.45;68.06;97582.47;4472553;32;20148;-81
2022/11/16 09:26:21;;;;;;;;;;;;;;;12.49;67.87;97589.19;4472690;32;20171;-81
2022/11/16 09:28:58;;;;;;;163.35;28.80;;;;;;;12.52;67.87;97586.28;4472400;32;19984;-81
2022/11/16 09:31:28;;;;;;;227.50;31.10;;;;;;;12.54;67.84;97587.00;4485447;32;20144;-81
2022/11/16 09:33:57;;;;;;;143.20;28.40;;;;;;;12.57;67.62;97584.09;4485608;32;20089;-81
2022/11/16 09:36:23;;;;;;;130.00;27.23;;;;;;;12.55;67.74;97591.31;4486829;31;20096;-82
2022/11/16 09:38:49;;;;;;;262.38;35.42;;;;;;;12.60;67.67;97575.94;4485442;32;20091;-81
2022/11/16 09:41:42;;;;;;;219.27;30.88;;;;;;;12.59;67.70;97569.81;4486694;31;20140;-81
2022/11/16 09:44:36;;;;;;;90.07;25.83;;;;;;;12.66;67.69;97571.94;4486641;31;20122;-81
2022/11/16 09:47:03;;;;;;;373.45;38.58;;;;;;;12.64;67.65;97561.50;4486683;31;20456;-81
2022/11/16 09:49:38;;;;;;;406.80;37.47;;;;;;;12.54;67.73;97565.88;4485499;32;20452;-81
2022/11/16 09:52:10;;;;;;;435.63;40.10;;;;;;;12.59;67.67;97561.03;4485363;32;20111;-81
2022/11/16 09:54:40;;;;;;;197.85;30.60;;;;;;;12.55;67.57;97559.59;4485333;32;20464;-81
2022/11/16 09:57:10;;;;;;;318.15;35.22;;;;;;;12.62;67.49;97552.88;4485228;32;20219;-81
2022/11/16 09:59:39;;;;;;;239.05;32.50;;;;;;;12.63;67.41;97554.53;4485339;32;20106;-81
2022/11/16 10:02:36;;;;;;;443.15;40.00;;;;;;;12.67;67.28;97545.41;4485114;32;20100;-81
2022/11/16 10:05:17;;;;;;;376.05;37.55;;;;;;;12.25;67.95;97545.31;4486550;31;20097;-81
2022/11/16 10:07:47;;;;;;;280.62;35.22;;;;;;;12.47;67.83;97538.28;4486447;31;20118;-81
2022/11/16 10:10:33;;;;;;;230.50;30.37;;;;;;;12.58;67.58;97527.66;4486439;31;20110;-81
2022/11/16 10:13:07;;;;;;;486.50;42.72;;;;;;;12.65;67.60;97530.63;4486294;31;20147;-81
2022/11/16 10:15:35;;;;;;;170.02;29.23;;;;;;;12.61;67.30;97531.84;4486151;32;20097;-81
2022/11/16 10:18:06;;;;;;;348.17;35.72;;;;;;;12.47;67.74;97531.19;4486294;32;20087;-81
2022/11/16 10:21:04;;;;;;;360.00;36.88;;;;;;;12.54;67.46;97528.88;4486292;31;20088;-81
2022/11/16 10:24:07;;;;;;;198.00;27.77;;;;;;;12.57;67.50;97520.69;4484938;32;20127;-81
2022/11/16 10:26:52;;;;;;;302.08;34.13;;;;;;;12.60;67.50;97507.25;4487704;32;20131;-81
2022/11/16 10:29:33;;;;;;;256.45;31.37;;;;;;;12.58;67.57;97509.19;4488347;31;20091;-81
2022/11/16 10:32:14;;;;;;;368.95;36.90;;;;;;;12.63;67.44;97512.25;4486816;32;20114;-81
2022/11/16 10:34:58;;;;;;;199.60;30.40;;;;;;;12.49;67.77;97507.28;4488015;32;20076;-81
2022/11/16 10:37:29;;;;;;;166.25;29.00;;;;;;;12.52;67.71;97499.13;4488008;31;20464;-81
2022/11/16 10:39:54;;;;;;;284.33;33.97;;;;;;;12.48;67.84;97501.19;4487077;32;20092;-81
2022/11/16 10:42:38;;;;;;;279.52;35.05;;;;;;;12.56;67.56;97500.53;4488014;31;20141;-81
2022/11/16 10:45:03;;;;;;;321.67;35.40;;;;;;;12.58;67.55;97496.78;4487936;31;20080;-81
2022/11/16 10:47:35;;;;;;;226.23;30.73;;;;;;;12.64;67.40;97494.63;4487880;32;20475;-81
2022/11/16 10:50:25;;;;;;;358.63;38.30;;;;;;;12.51;67.60;97486.88;4487988;31;20088;-81
2022/11/16 10:52:50;;;;;;;468.65;40.15;;;;;;;12.57;67.18;97481.06;4486789;32;20088;-81
2022/11/16 10:55:17;;;;;;;208.52;30.73;;;;;;;12.54;67.30;97479.53;4487850;32;20180;-81
2022/11/16 10:58:02;;;;;;;422.77;40.03;;;;;;;12.62;66.91;97478.87;4486871;32;20431;-81
2022/11/16 11:00:32;;;;;;;319.92;35.00;;;;;;;12.41;67.71;97478.03;4486698;32;20092;-81
2022/11/16 11:02:58;;;;;;;155.93;29.73;;;;;;;12.28;68.23;97472.94;4487888;31;20143;-81
2022/11/16 11:05:25;;;;;;;531.22;43.83;;;;;;;12.46;67.70;97466.12;4487697;31;20473;-81
2022/11/16 11:08:06;;;;;;;523.72;46.00;;;;;;;11.90;69.10;97461.06;4487851;31;20479;-81
2022/11/16 11:10:40;;;;;;;551.60;50.42;;;;;;;11.88;69.87;97452.41;4486736;32;20134;-81
2022/11/16 11:13:11;;;;;;;372.90;37.30;;;;;;;12.00;69.37;97462.00;4473882;32;20080;-81
2022/11/16 11:15:39;;;;;;;378.62;38.70;;;;;;;11.87;69.83;97448.94;4487840;32;20107;-81
2022/11/16 11:18:22;;;;;;;151.12;29.25;;;;;;;12.15;69.12;97449.34;4486585;32;20127;-81
2022/11/16 11:21:11;;;;;;;136.75;27.08;;;;;;;12.33;68.73;97445.19;4487850;31;20084;-81
2022/11/16 11:23:41;;;;;;;443.27;40.58;;;;;;;12.40;68.59;97450.81;4486654;32;20100;-81
2022/11/16 11:26:07;;;;;;;207.07;29.15;;;;;;;12.12;69.40;97441.69;4486443;32;20084;-81
2022/11/16 11:28:35;;;;;;;320.12;34.90;;;;;;;11.77;70.39;97445.38;4487700;31;20436;-81
2022/11/16 11:31:21;;;;;;;;;;;;;;;11.96;69.69;97435.03;4486882;32;20161;-81
2022/11/16 11:33:59;;;;;;;338.90;35.83;;;;;;;12.28;68.62;97430.69;4487830;31;19971;-81
2022/11/16 11:36:47;;;;;;;184.00;28.50;;;;;;;12.19;68.98;97427.84;4485626;32;20114;-81
2022/11/16 11:39:12;;;;;;;431.30;38.85;;;;;;;12.36;68.61;97430.88;4486524;32;20097;-81
2022/11/16 11:41:43;;;;;;;274.70;33.45;;;;;;;12.08;69.24;97429.69;4487681;31;20111;-81
2022/11/16 11:44:11;;;;;;;279.95;33.25;;;;;;;12.21;68.80;97425.09;4486383;32;20144;-81
2022/11/16 11:46:45;;;;;;;221.15;30.77;;;;;;;12.26;68.56;97419.41;4487623;31;20106;-81
2022/11/16 11:49:34;;;;;;;662.80;51.80;;;;;;;12.21;68.71;97406.59;4486369;32;20139;-81
2022/11/16 11:52:05;;;;;;;98.10;26.85;;;;;;;11.81;70.01;97413.31;4487572;32;20089;-81
2022/11/16 11:54:37;;;;;;;259.60;30.70;;;;;;;12.27;68.76;97402.63;4486483;32;20373;-81
2022/11/16 11:57:03;;;;;;;105.55;26.75;;;;;;;12.49;68.08;97406.91;4486269;32;20111;-81
2022/11/16 11:59:28;;;;;;;81.90;25.70;;;;;;;12.52;67.92;97406.66;4486091;32;20678;-81
2022/11/16 12:01:54;;;;;;;188.70;28.70;;;;;;;12.52;67.99;97404.84;4486167;32;20437;-81
2022/11/16 12:04:29;;;;;;;489.77;42.20;;;;;;;12.58;67.82;97396.41;4487369;31;20081;-81
2022/11/16 12:07:11;;;;;;;194.50;29.52;;;;;;;12.29;68.39;97408.59;4487551;32;20144;-81
2022/11/16 12:10:04;;;;;;;186.15;26.92;;;;;;;12.41;67.85;97402.28;4487557;31;20119;-80